sensor_id;sensor_type;location;lat;lon;timestamp;P1;durP1;ratioP1;P2;durP2;ratioP2
22826;SDS011;11580;52.562;13.418;2024-01-30T00:01:24;8.67;;;7.80;;
22826;SDS011;11580;52.562;13.418;2024-01-30T00:03:51;8.80;;;8.00;;
22826;SDS011;11580;52.562;13.418;2024-01-30T00:06:18;8.73;;;7.83;;
22826;SDS011;11580;52.562;13.418;2024-01-30T00:08:47;8.47;;;7.77;;
22826;SDS011;11580;52.562;13.418;2024-01-30T00:11:15;8.43;;;7.00;;
22826;SDS011;11580;52.562;13.418;2024-01-30T00:13:42;8.33;;;6.87;;
22826;SDS011;11580;52.562;13.418;2024-01-30T00:16:19;8.97;;;7.90;;
22826;SDS011;11580;52.562;13.418;2024-01-30T00:18:49;9.47;;;7.20;;
22826;SDS011;11580;52.562;13.418;2024-01-30T00:21:16;8.60;;;7.80;;
22826;SDS011;11580;52.562;13.418;2024-01-30T00:23:44;9.27;;;8.37;;
22826;SDS011;11580;52.562;13.418;2024-01-30T00:26:12;8.90;;;7.70;;
22826;SDS011;11580;52.562;13.418;2024-01-30T00:28:40;6.97;;;6.40;;
22826;SDS011;11580;52.562;13.418;2024-01-30T00:31:08;8.10;;;7.27;;
22826;SDS011;11580;52.562;13.418;2024-01-30T00:33:37;7.80;;;7.07;;
22826;SDS011;11580;52.562;13.418;2024-01-30T00:36:04;8.43;;;7.63;;
22826;SDS011;11580;52.562;13.418;2024-01-30T00:38:32;8.20;;;7.43;;
22826;SDS011;11580;52.562;13.418;2024-01-30T00:41:00;8.47;;;7.70;;
22826;SDS011;11580;52.562;13.418;2024-01-30T00:43:29;8.03;;;7.20;;
22826;SDS011;11580;52.562;13.418;2024-01-30T00:45:57;9.30;;;7.50;;
22826;SDS011;11580;52.562;13.418;2024-01-30T00:48:25;7.87;;;7.07;;
22826;SDS011;11580;52.562;13.418;2024-01-30T00:50:52;8.60;;;7.67;;
22826;SDS011;11580;52.562;13.418;2024-01-30T00:53:19;8.23;;;7.40;;
22826;SDS011;11580;52.562;13.418;2024-01-30T00:55:46;7.63;;;6.93;;
22826;SDS011;11580;52.562;13.418;2024-01-30T00:58:14;7.17;;;6.47;;
22826;SDS011;11580;52.562;13.418;2024-01-30T01:00:42;8.27;;;7.47;;
22826;SDS011;11580;52.562;13.418;2024-01-30T01:03:09;6.73;;;6.13;;
22826;SDS011;11580;52.562;13.418;2024-01-30T01:05:36;7.87;;;7.07;;
22826;SDS011;11580;52.562;13.418;2024-01-30T01:08:04;8.43;;;7.60;;
22826;SDS011;11580;52.562;13.418;2024-01-30T01:10:32;8.40;;;7.60;;
22826;SDS011;11580;52.562;13.418;2024-01-30T01:12:59;7.90;;;7.20;;
22826;SDS011;11580;52.562;13.418;2024-01-30T01:15:26;7.20;;;6.50;;
22826;SDS011;11580;52.562;13.418;2024-01-30T01:17:54;7.40;;;6.70;;
22826;SDS011;11580;52.562;13.418;2024-01-30T01:20:22;7.63;;;6.93;;
22826;SDS011;11580;52.562;13.418;2024-01-30T01:22:49;8.67;;;7.50;;
22826;SDS011;11580;52.562;13.418;2024-01-30T01:25:17;8.53;;;7.67;;
22826;SDS011;11580;52.562;13.418;2024-01-30T01:27:44;10.13;;;7.50;;
22826;SDS011;11580;52.562;13.418;2024-01-30T01:30:16;8.33;;;7.50;;
22826;SDS011;11580;52.562;13.418;2024-01-30T01:32:47;7.90;;;7.20;;
22826;SDS011;11580;52.562;13.418;2024-01-30T01:35:21;8.20;;;7.40;;
22826;SDS011;11580;52.562;13.418;2024-01-30T01:37:49;8.90;;;8.10;;
22826;SDS011;11580;52.562;13.418;2024-01-30T01:40:20;8.03;;;6.67;;
22826;SDS011;11580;52.562;13.418;2024-01-30T01:42:49;8.03;;;7.23;;
22826;SDS011;11580;52.562;13.418;2024-01-30T01:45:17;8.47;;;7.70;;
22826;SDS011;11580;52.562;13.418;2024-01-30T01:47:45;7.97;;;7.23;;
22826;SDS011;11580;52.562;13.418;2024-01-30T01:50:17;7.40;;;6.80;;
22826;SDS011;11580;52.562;13.418;2024-01-30T01:52:48;8.97;;;8.07;;
22826;SDS011;11580;52.562;13.418;2024-01-30T01:55:17;9.17;;;7.43;;
22826;SDS011;11580;52.562;13.418;2024-01-30T01:57:49;9.70;;;7.40;;
22826;SDS011;11580;52.562;13.418;2024-01-30T02:00:17;8.80;;;7.90;;
22826;SDS011;11580;52.562;13.418;2024-01-30T02:02:46;8.30;;;7.50;;
22826;SDS011;11580;52.562;13.418;2024-01-30T02:05:14;7.40;;;6.70;;
22826;SDS011;11580;52.562;13.418;2024-01-30T02:07:43;8.70;;;7.47;;
22826;SDS011;11580;52.562;13.418;2024-01-30T02:10:11;8.23;;;7.10;;
22826;SDS011;11580;52.562;13.418;2024-01-30T02:12:38;8.73;;;7.20;;
22826;SDS011;11580;52.562;13.418;2024-01-30T02:15:06;10.07;;;9.10;;
22826;SDS011;11580;52.562;13.418;2024-01-30T02:17:33;7.67;;;6.97;;
22826;SDS011;11580;52.562;13.418;2024-01-30T02:20:00;8.30;;;7.50;;
22826;SDS011;11580;52.562;13.418;2024-01-30T02:22:31;7.10;;;6.50;;
22826;SDS011;11580;52.562;13.418;2024-01-30T02:25:00;9.10;;;8.13;;
22826;SDS011;11580;52.562;13.418;2024-01-30T02:27:27;8.67;;;7.67;;
22826;SDS011;11580;52.562;13.418;2024-01-30T02:29:55;11.07;;;8.50;;
22826;SDS011;11580;52.562;13.418;2024-01-30T02:32:22;9.30;;;8.40;;
22826;SDS011;11580;52.562;13.418;2024-01-30T02:34:49;8.37;;;7.60;;
22826;SDS011;11580;52.562;13.418;2024-01-30T02:37:16;8.90;;;8.17;;
22826;SDS011;11580;52.562;13.418;2024-01-30T02:39:44;7.73;;;6.93;;
22826;SDS011;11580;52.562;13.418;2024-01-30T02:42:12;8.73;;;7.73;;
22826;SDS011;11580;52.562;13.418;2024-01-30T02:44:39;9.40;;;8.50;;
22826;SDS011;11580;52.562;13.418;2024-01-30T02:47:06;8.10;;;7.30;;
22826;SDS011;11580;52.562;13.418;2024-01-30T02:49:33;8.83;;;7.30;;
22826;SDS011;11580;52.562;13.418;2024-01-30T02:52:00;9.20;;;8.33;;
22826;SDS011;11580;52.562;13.418;2024-01-30T02:54:27;8.40;;;7.50;;
22826;SDS011;11580;52.562;13.418;2024-01-30T02:56:57;10.47;;;8.20;;
22826;SDS011;11580;52.562;13.418;2024-01-30T02:59:24;9.37;;;7.73;;
22826;SDS011;11580;52.562;13.418;2024-01-30T03:01:51;9.70;;;8.43;;
22826;SDS011;11580;52.562;13.418;2024-01-30T03:04:18;8.53;;;7.40;;
22826;SDS011;11580;52.562;13.418;2024-01-30T03:06:45;8.17;;;7.50;;
22826;SDS011;11580;52.562;13.418;2024-01-30T03:09:13;8.00;;;7.30;;
22826;SDS011;11580;52.562;13.418;2024-01-30T03:11:42;8.17;;;7.37;;
22826;SDS011;11580;52.562;13.418;2024-01-30T03:14:10;8.93;;;8.03;;
22826;SDS011;11580;52.562;13.418;2024-01-30T03:16:38;8.07;;;7.30;;
22826;SDS011;11580;52.562;13.418;2024-01-30T03:19:05;8.70;;;7.70;;
22826;SDS011;11580;52.562;13.418;2024-01-30T03:21:34;7.80;;;7.10;;
22826;SDS011;11580;52.562;13.418;2024-01-30T03:24:01;7.83;;;7.03;;
22826;SDS011;11580;52.562;13.418;2024-01-30T03:26:29;8.27;;;7.33;;
22826;SDS011;11580;52.562;13.418;2024-01-30T03:28:56;8.13;;;7.33;;
22826;SDS011;11580;52.562;13.418;2024-01-30T03:31:25;8.33;;;7.53;;
22826;SDS011;11580;52.562;13.418;2024-01-30T03:33:52;9.80;;;7.47;;
22826;SDS011;11580;52.562;13.418;2024-01-30T03:36:19;8.93;;;8.03;;
22826;SDS011;11580;52.562;13.418;2024-01-30T03:38:46;8.23;;;7.47;;
22826;SDS011;11580;52.562;13.418;2024-01-30T03:41:13;8.60;;;7.80;;
22826;SDS011;11580;52.562;13.418;2024-01-30T03:43:41;8.27;;;7.40;;
22826;SDS011;11580;52.562;13.418;2024-01-30T03:46:08;8.50;;;7.70;;
22826;SDS011;11580;52.562;13.418;2024-01-30T03:48:36;8.23;;;7.43;;
22826;SDS011;11580;52.562;13.418;2024-01-30T03:51:04;7.57;;;6.87;;
22826;SDS011;11580;52.562;13.418;2024-01-30T03:53:31;8.53;;;7.70;;
22826;SDS011;11580;52.562;13.418;2024-01-30T03:55:59;9.20;;;7.90;;
22826;SDS011;11580;52.562;13.418;2024-01-30T03:58:26;9.10;;;7.70;;
22826;SDS011;11580;52.562;13.418;2024-01-30T04:00:53;8.53;;;7.67;;
22826;SDS011;11580;52.562;13.418;2024-01-30T04:03:20;8.20;;;7.43;;
22826;SDS011;11580;52.562;13.418;2024-01-30T04:05:49;8.20;;;7.40;;
22826;SDS011;11580;52.562;13.418;2024-01-30T04:08:17;8.50;;;7.70;;
22826;SDS011;11580;52.562;13.418;2024-01-30T04:10:44;8.27;;;7.50;;
22826;SDS011;11580;52.562;13.418;2024-01-30T04:13:13;8.50;;;7.50;;
22826;SDS011;11580;52.562;13.418;2024-01-30T04:15:40;8.87;;;8.07;;
22826;SDS011;11580;52.562;13.418;2024-01-30T04:18:07;8.13;;;7.37;;
22826;SDS011;11580;52.562;13.418;2024-01-30T04:20:34;8.83;;;7.93;;
22826;SDS011;11580;52.562;13.418;2024-01-30T04:23:03;9.53;;;7.73;;
22826;SDS011;11580;52.562;13.418;2024-01-30T04:25:31;8.93;;;7.87;;
22826;SDS011;11580;52.562;13.418;2024-01-30T04:27:58;8.93;;;8.03;;
22826;SDS011;11580;52.562;13.418;2024-01-30T04:30:25;8.53;;;7.73;;
22826;SDS011;11580;52.562;13.418;2024-01-30T04:32:53;8.77;;;7.93;;
22826;SDS011;11580;52.562;13.418;2024-01-30T04:35:20;8.43;;;7.67;;
22826;SDS011;11580;52.562;13.418;2024-01-30T04:37:50;8.83;;;7.93;;
22826;SDS011;11580;52.562;13.418;2024-01-30T04:40:19;7.93;;;7.30;;
22826;SDS011;11580;52.562;13.418;2024-01-30T04:42:47;7.07;;;6.43;;
22826;SDS011;11580;52.562;13.418;2024-01-30T04:45:14;9.30;;;8.27;;
22826;SDS011;11580;52.562;13.418;2024-01-30T04:47:42;7.77;;;7.10;;
22826;SDS011;11580;52.562;13.418;2024-01-30T04:50:09;8.33;;;7.57;;
22826;SDS011;11580;52.562;13.418;2024-01-30T04:52:36;9.40;;;8.10;;
22826;SDS011;11580;52.562;13.418;2024-01-30T04:55:04;9.20;;;8.40;;
22826;SDS011;11580;52.562;13.418;2024-01-30T04:57:33;7.67;;;6.97;;
22826;SDS011;11580;52.562;13.418;2024-01-30T05:00:01;7.73;;;7.03;;
22826;SDS011;11580;52.562;13.418;2024-01-30T05:02:30;7.90;;;7.20;;
22826;SDS011;11580;52.562;13.418;2024-01-30T05:04:57;9.37;;;8.33;;
22826;SDS011;11580;52.562;13.418;2024-01-30T05:07:24;7.77;;;7.07;;
22826;SDS011;11580;52.562;13.418;2024-01-30T05:09:51;8.73;;;7.93;;
22826;SDS011;11580;52.562;13.418;2024-01-30T05:12:19;8.80;;;7.97;;
22826;SDS011;11580;52.562;13.418;2024-01-30T05:14:48;7.70;;;7.00;;
22826;SDS011;11580;52.562;13.418;2024-01-30T05:17:15;9.20;;;7.80;;
22826;SDS011;11580;52.562;13.418;2024-01-30T05:19:43;7.63;;;6.80;;
22826;SDS011;11580;52.562;13.418;2024-01-30T05:22:10;8.40;;;7.60;;
22826;SDS011;11580;52.562;13.418;2024-01-30T05:24:40;8.50;;;7.70;;
22826;SDS011;11580;52.562;13.418;2024-01-30T05:27:08;8.93;;;8.03;;
22826;SDS011;11580;52.562;13.418;2024-01-30T05:29:35;9.70;;;8.27;;
22826;SDS011;11580;52.562;13.418;2024-01-30T05:32:04;8.20;;;7.40;;
22826;SDS011;11580;52.562;13.418;2024-01-30T05:34:31;8.07;;;7.27;;
22826;SDS011;11580;52.562;13.418;2024-01-30T05:36:59;8.17;;;7.30;;
22826;SDS011;11580;52.562;13.418;2024-01-30T05:39:26;8.53;;;7.50;;
22826;SDS011;11580;52.562;13.418;2024-01-30T05:41:53;8.70;;;7.60;;
22826;SDS011;11580;52.562;13.418;2024-01-30T05:44:20;8.87;;;8.07;;
22826;SDS011;11580;52.562;13.418;2024-01-30T05:46:47;8.87;;;8.07;;
22826;SDS011;11580;52.562;13.418;2024-01-30T05:49:16;8.70;;;7.70;;
22826;SDS011;11580;52.562;13.418;2024-01-30T05:51:43;8.37;;;7.57;;
22826;SDS011;11580;52.562;13.418;2024-01-30T05:54:10;8.00;;;7.10;;
22826;SDS011;11580;52.562;13.418;2024-01-30T05:56:37;8.70;;;7.90;;
22826;SDS011;11580;52.562;13.418;2024-01-30T05:59:04;9.20;;;8.30;;
22826;SDS011;11580;52.562;13.418;2024-01-30T06:01:32;9.17;;;8.40;;
22826;SDS011;11580;52.562;13.418;2024-01-30T06:03:59;9.17;;;8.20;;
22826;SDS011;11580;52.562;13.418;2024-01-30T06:06:29;8.23;;;7.40;;
22826;SDS011;11580;52.562;13.418;2024-01-30T06:08:56;9.67;;;8.37;;
22826;SDS011;11580;52.562;13.418;2024-01-30T06:11:23;10.30;;;8.20;;
22826;SDS011;11580;52.562;13.418;2024-01-30T06:13:50;8.23;;;7.40;;
22826;SDS011;11580;52.562;13.418;2024-01-30T06:16:17;9.13;;;7.13;;
22826;SDS011;11580;52.562;13.418;2024-01-30T06:18:46;9.13;;;8.23;;
22826;SDS011;11580;52.562;13.418;2024-01-30T06:21:13;10.23;;;8.00;;
22826;SDS011;11580;52.562;13.418;2024-01-30T06:23:42;9.60;;;7.50;;
22826;SDS011;11580;52.562;13.418;2024-01-30T06:26:09;8.63;;;7.73;;
22826;SDS011;11580;52.562;13.418;2024-01-30T06:28:36;8.00;;;7.30;;
22826;SDS011;11580;52.562;13.418;2024-01-30T06:31:03;10.63;;;8.70;;
22826;SDS011;11580;52.562;13.418;2024-01-30T06:33:31;10.63;;;8.27;;
22826;SDS011;11580;52.562;13.418;2024-01-30T06:35:58;9.27;;;8.23;;
22826;SDS011;11580;52.562;13.418;2024-01-30T06:38:25;8.83;;;8.03;;
22826;SDS011;11580;52.562;13.418;2024-01-30T06:40:54;8.03;;;7.20;;
22826;SDS011;11580;52.562;13.418;2024-01-30T06:43:21;8.20;;;7.30;;
22826;SDS011;11580;52.562;13.418;2024-01-30T06:45:49;8.80;;;7.57;;
22826;SDS011;11580;52.562;13.418;2024-01-30T06:48:17;8.93;;;7.77;;
22826;SDS011;11580;52.562;13.418;2024-01-30T06:50:44;10.93;;;8.87;;
22826;SDS011;11580;52.562;13.418;2024-01-30T06:53:13;9.70;;;8.77;;
22826;SDS011;11580;52.562;13.418;2024-01-30T06:55:40;9.67;;;8.43;;
22826;SDS011;11580;52.562;13.418;2024-01-30T06:58:08;9.67;;;8.70;;
22826;SDS011;11580;52.562;13.418;2024-01-30T07:00:35;9.23;;;8.33;;
22826;SDS011;11580;52.562;13.418;2024-01-30T07:03:03;9.47;;;8.57;;
22826;SDS011;11580;52.562;13.418;2024-01-30T07:05:31;11.10;;;8.97;;
22826;SDS011;11580;52.562;13.418;2024-01-30T07:07:58;11.03;;;9.90;;
22826;SDS011;11580;52.562;13.418;2024-01-30T07:10:25;9.20;;;8.30;;
22826;SDS011;11580;52.562;13.418;2024-01-30T07:12:53;9.93;;;8.33;;
22826;SDS011;11580;52.562;13.418;2024-01-30T07:15:21;11.30;;;8.03;;
22826;SDS011;11580;52.562;13.418;2024-01-30T07:17:48;11.77;;;8.17;;
22826;SDS011;11580;52.562;13.418;2024-01-30T07:20:15;9.00;;;8.10;;
22826;SDS011;11580;52.562;13.418;2024-01-30T07:22:45;12.60;;;9.37;;
22826;SDS011;11580;52.562;13.418;2024-01-30T07:25:13;10.37;;;9.37;;
22826;SDS011;11580;52.562;13.418;2024-01-30T07:27:40;10.13;;;8.00;;
22826;SDS011;11580;52.562;13.418;2024-01-30T07:30:07;8.43;;;7.63;;
22826;SDS011;11580;52.562;13.418;2024-01-30T07:32:36;8.93;;;8.13;;
22826;SDS011;11580;52.562;13.418;2024-01-30T07:35:04;9.97;;;8.97;;
22826;SDS011;11580;52.562;13.418;2024-01-30T07:37:31;9.90;;;8.90;;
22826;SDS011;11580;52.562;13.418;2024-01-30T07:39:59;13.40;;;9.70;;
22826;SDS011;11580;52.562;13.418;2024-01-30T07:42:28;9.77;;;8.77;;
22826;SDS011;11580;52.562;13.418;2024-01-30T07:44:55;11.33;;;9.60;;
22826;SDS011;11580;52.562;13.418;2024-01-30T07:47:22;10.13;;;9.20;;
22826;SDS011;11580;52.562;13.418;2024-01-30T07:49:51;8.93;;;8.13;;
22826;SDS011;11580;52.562;13.418;2024-01-30T07:52:19;10.43;;;9.33;;
22826;SDS011;11580;52.562;13.418;2024-01-30T07:54:49;9.67;;;8.87;;
22826;SDS011;11580;52.562;13.418;2024-01-30T07:57:17;9.97;;;9.10;;
22826;SDS011;11580;52.562;13.418;2024-01-30T07:59:44;10.53;;;9.20;;
22826;SDS011;11580;52.562;13.418;2024-01-30T08:02:11;9.63;;;8.77;;
22826;SDS011;11580;52.562;13.418;2024-01-30T08:04:39;10.00;;;9.07;;
22826;SDS011;11580;52.562;13.418;2024-01-30T08:07:08;9.83;;;8.90;;
22826;SDS011;11580;52.562;13.418;2024-01-30T08:09:35;8.70;;;7.93;;
22826;SDS011;11580;52.562;13.418;2024-01-30T08:12:02;9.77;;;8.80;;
22826;SDS011;11580;52.562;13.418;2024-01-30T08:14:30;13.90;;;9.60;;
22826;SDS011;11580;52.562;13.418;2024-01-30T08:16:57;11.83;;;8.77;;
22826;SDS011;11580;52.562;13.418;2024-01-30T08:19:24;12.17;;;9.17;;
22826;SDS011;11580;52.562;13.418;2024-01-30T08:21:51;9.93;;;9.03;;
22826;SDS011;11580;52.562;13.418;2024-01-30T08:24:20;9.93;;;9.10;;
22826;SDS011;11580;52.562;13.418;2024-01-30T08:26:47;9.73;;;8.77;;
22826;SDS011;11580;52.562;13.418;2024-01-30T08:29:14;9.67;;;8.80;;
22826;SDS011;11580;52.562;13.418;2024-01-30T08:31:41;10.17;;;9.07;;
22826;SDS011;11580;52.562;13.418;2024-01-30T08:34:09;10.87;;;9.23;;
22826;SDS011;11580;52.562;13.418;2024-01-30T08:36:36;9.63;;;8.70;;
22826;SDS011;11580;52.562;13.418;2024-01-30T08:39:03;10.43;;;9.47;;
22826;SDS011;11580;52.562;13.418;2024-01-30T08:41:32;11.20;;;10.00;;
22826;SDS011;11580;52.562;13.418;2024-01-30T08:43:59;10.67;;;9.67;;
22826;SDS011;11580;52.562;13.418;2024-01-30T08:46:26;10.47;;;9.53;;
22826;SDS011;11580;52.562;13.418;2024-01-30T08:48:54;9.60;;;8.70;;
22826;SDS011;11580;52.562;13.418;2024-01-30T08:51:21;9.63;;;8.83;;
22826;SDS011;11580;52.562;13.418;2024-01-30T08:53:48;11.10;;;10.00;;
22826;SDS011;11580;52.562;13.418;2024-01-30T08:56:15;10.00;;;9.10;;
22826;SDS011;11580;52.562;13.418;2024-01-30T08:58:43;10.10;;;9.20;;
22826;SDS011;11580;52.562;13.418;2024-01-30T09:01:11;10.63;;;9.63;;
22826;SDS011;11580;52.562;13.418;2024-01-30T09:03:38;10.27;;;9.27;;
22826;SDS011;11580;52.562;13.418;2024-01-30T09:06:07;10.00;;;9.00;;
22826;SDS011;11580;52.562;13.418;2024-01-30T09:08:35;9.37;;;8.57;;
22826;SDS011;11580;52.562;13.418;2024-01-30T09:11:02;9.20;;;8.40;;
22826;SDS011;11580;52.562;13.418;2024-01-30T09:13:36;9.57;;;8.67;;
22826;SDS011;11580;52.562;13.418;2024-01-30T09:16:05;10.50;;;8.87;;
22826;SDS011;11580;52.562;13.418;2024-01-30T09:18:33;9.43;;;8.53;;
22826;SDS011;11580;52.562;13.418;2024-01-30T09:21:00;9.57;;;8.60;;
22826;SDS011;11580;52.562;13.418;2024-01-30T09:23:27;8.67;;;7.87;;
22826;SDS011;11580;52.562;13.418;2024-01-30T09:25:55;9.67;;;8.87;;
22826;SDS011;11580;52.562;13.418;2024-01-30T09:28:22;9.07;;;8.23;;
22826;SDS011;11580;52.562;13.418;2024-01-30T09:30:49;8.73;;;8.00;;
22826;SDS011;11580;52.562;13.418;2024-01-30T09:33:18;9.43;;;8.53;;
22826;SDS011;11580;52.562;13.418;2024-01-30T09:35:45;10.10;;;9.10;;
22826;SDS011;11580;52.562;13.418;2024-01-30T09:38:12;11.30;;;8.93;;
22826;SDS011;11580;52.562;13.418;2024-01-30T09:40:39;10.10;;;9.10;;
22826;SDS011;11580;52.562;13.418;2024-01-30T09:43:07;9.93;;;8.90;;
22826;SDS011;11580;52.562;13.418;2024-01-30T09:45:34;9.63;;;8.70;;
22826;SDS011;11580;52.562;13.418;2024-01-30T09:48:02;9.53;;;8.63;;
22826;SDS011;11580;52.562;13.418;2024-01-30T09:50:31;9.33;;;8.50;;
22826;SDS011;11580;52.562;13.418;2024-01-30T09:53:02;9.97;;;8.97;;
22826;SDS011;11580;52.562;13.418;2024-01-30T09:55:32;9.70;;;8.70;;
22826;SDS011;11580;52.562;13.418;2024-01-30T09:58:02;10.20;;;9.30;;
22826;SDS011;11580;52.562;13.418;2024-01-30T10:00:29;10.90;;;9.80;;
22826;SDS011;11580;52.562;13.418;2024-01-30T10:02:56;10.53;;;8.70;;
22826;SDS011;11580;52.562;13.418;2024-01-30T10:05:24;12.10;;;8.47;;
22826;SDS011;11580;52.562;13.418;2024-01-30T10:07:56;8.83;;;8.03;;
22826;SDS011;11580;52.562;13.418;2024-01-30T10:10:24;9.70;;;8.70;;
22826;SDS011;11580;52.562;13.418;2024-01-30T10:12:51;8.57;;;7.77;;
22826;SDS011;11580;52.562;13.418;2024-01-30T10:15:18;10.40;;;9.40;;
22826;SDS011;11580;52.562;13.418;2024-01-30T10:17:45;8.80;;;7.90;;
22826;SDS011;11580;52.562;13.418;2024-01-30T10:20:12;8.73;;;7.93;;
22826;SDS011;11580;52.562;13.418;2024-01-30T10:22:40;10.37;;;9.37;;
22826;SDS011;11580;52.562;13.418;2024-01-30T10:25:10;8.90;;;8.00;;
22826;SDS011;11580;52.562;13.418;2024-01-30T10:27:39;8.30;;;7.60;;
22826;SDS011;11580;52.562;13.418;2024-01-30T10:30:07;7.37;;;6.70;;
22826;SDS011;11580;52.562;13.418;2024-01-30T10:32:35;8.17;;;7.47;;
22826;SDS011;11580;52.562;13.418;2024-01-30T10:35:02;8.40;;;7.70;;
22826;SDS011;11580;52.562;13.418;2024-01-30T10:37:30;7.50;;;6.77;;
22826;SDS011;11580;52.562;13.418;2024-01-30T10:39:59;7.97;;;7.27;;
22826;SDS011;11580;52.562;13.418;2024-01-30T10:42:32;8.00;;;7.17;;
22826;SDS011;11580;52.562;13.418;2024-01-30T10:45:05;8.00;;;7.20;;
22826;SDS011;11580;52.562;13.418;2024-01-30T10:47:34;7.97;;;7.17;;
22826;SDS011;11580;52.562;13.418;2024-01-30T10:50:03;9.37;;;8.50;;
22826;SDS011;11580;52.562;13.418;2024-01-30T10:52:32;7.87;;;7.10;;
22826;SDS011;11580;52.562;13.418;2024-01-30T10:55:00;7.10;;;6.50;;
22826;SDS011;11580;52.562;13.418;2024-01-30T10:57:32;9.37;;;6.87;;
22826;SDS011;11580;52.562;13.418;2024-01-30T11:00:03;7.33;;;6.63;;
22826;SDS011;11580;52.562;13.418;2024-01-30T11:02:35;7.77;;;7.07;;
22826;SDS011;11580;52.562;13.418;2024-01-30T11:05:05;7.90;;;7.20;;
22826;SDS011;11580;52.562;13.418;2024-01-30T11:07:33;7.17;;;6.60;;
22826;SDS011;11580;52.562;13.418;2024-01-30T11:10:01;7.90;;;7.10;;
22826;SDS011;11580;52.562;13.418;2024-01-30T11:12:33;8.47;;;7.53;;
22826;SDS011;11580;52.562;13.418;2024-01-30T11:15:08;7.17;;;6.27;;
22826;SDS011;11580;52.562;13.418;2024-01-30T11:17:42;7.40;;;6.80;;
22826;SDS011;11580;52.562;13.418;2024-01-30T11:20:11;7.33;;;6.67;;
22826;SDS011;11580;52.562;13.418;2024-01-30T11:22:42;7.50;;;6.90;;
22826;SDS011;11580;52.562;13.418;2024-01-30T11:25:11;7.27;;;6.57;;
22826;SDS011;11580;52.562;13.418;2024-01-30T11:27:42;7.20;;;6.60;;
22826;SDS011;11580;52.562;13.418;2024-01-30T11:30:09;7.70;;;7.03;;
22826;SDS011;11580;52.562;13.418;2024-01-30T11:32:37;7.90;;;7.20;;
22826;SDS011;11580;52.562;13.418;2024-01-30T11:35:05;8.10;;;7.40;;
22826;SDS011;11580;52.562;13.418;2024-01-30T11:37:36;8.07;;;7.23;;
22826;SDS011;11580;52.562;13.418;2024-01-30T11:40:05;8.13;;;7.33;;
22826;SDS011;11580;52.562;13.418;2024-01-30T11:42:34;7.70;;;7.03;;
22826;SDS011;11580;52.562;13.418;2024-01-30T11:45:06;7.20;;;6.50;;
22826;SDS011;11580;52.562;13.418;2024-01-30T11:47:34;9.03;;;8.13;;
22826;SDS011;11580;52.562;13.418;2024-01-30T11:50:03;7.67;;;6.97;;
22826;SDS011;11580;52.562;13.418;2024-01-30T11:52:31;7.80;;;7.03;;
22826;SDS011;11580;52.562;13.418;2024-01-30T11:55:00;8.47;;;7.67;;
22826;SDS011;11580;52.562;13.418;2024-01-30T11:57:27;8.13;;;7.30;;
22826;SDS011;11580;52.562;13.418;2024-01-30T11:59:55;7.33;;;6.60;;
22826;SDS011;11580;52.562;13.418;2024-01-30T12:02:23;7.90;;;7.10;;
22826;SDS011;11580;52.562;13.418;2024-01-30T12:04:50;7.87;;;7.17;;
22826;SDS011;11580;52.562;13.418;2024-01-30T12:07:18;8.57;;;7.77;;
22826;SDS011;11580;52.562;13.418;2024-01-30T12:09:51;7.87;;;7.20;;
22826;SDS011;11580;52.562;13.418;2024-01-30T12:12:21;8.70;;;7.93;;
22826;SDS011;11580;52.562;13.418;2024-01-30T12:14:49;8.20;;;7.50;;
22826;SDS011;11580;52.562;13.418;2024-01-30T12:17:24;8.37;;;7.60;;
22826;SDS011;11580;52.562;13.418;2024-01-30T12:20:05;7.53;;;6.93;;
22826;SDS011;11580;52.562;13.418;2024-01-30T12:22:33;8.23;;;7.53;;
22826;SDS011;11580;52.562;13.418;2024-01-30T12:25:04;8.80;;;7.90;;
22826;SDS011;11580;52.562;13.418;2024-01-30T12:27:33;7.90;;;7.20;;
22826;SDS011;11580;52.562;13.418;2024-01-30T12:30:01;9.10;;;7.57;;
22826;SDS011;11580;52.562;13.418;2024-01-30T12:32:33;8.17;;;7.47;;
22826;SDS011;11580;52.562;13.418;2024-01-30T12:35:02;8.63;;;7.87;;
22826;SDS011;11580;52.562;13.418;2024-01-30T12:37:29;9.53;;;8.37;;
22826;SDS011;11580;52.562;13.418;2024-01-30T12:39:57;8.70;;;7.90;;
22826;SDS011;11580;52.562;13.418;2024-01-30T12:42:26;9.80;;;8.40;;
22826;SDS011;11580;52.562;13.418;2024-01-30T12:44:54;8.40;;;7.70;;
22826;SDS011;11580;52.562;13.418;2024-01-30T12:47:23;8.47;;;7.77;;
22826;SDS011;11580;52.562;13.418;2024-01-30T12:49:52;8.17;;;7.43;;
22826;SDS011;11580;52.562;13.418;2024-01-30T12:52:20;8.57;;;7.83;;
22826;SDS011;11580;52.562;13.418;2024-01-30T12:54:48;8.93;;;8.03;;
22826;SDS011;11580;52.562;13.418;2024-01-30T12:57:16;8.47;;;7.77;;
22826;SDS011;11580;52.562;13.418;2024-01-30T12:59:44;9.37;;;8.50;;
22826;SDS011;11580;52.562;13.418;2024-01-30T13:02:12;8.90;;;8.03;;
22826;SDS011;11580;52.562;13.418;2024-01-30T13:04:41;8.97;;;8.07;;
22826;SDS011;11580;52.562;13.418;2024-01-30T13:07:10;9.00;;;8.10;;
22826;SDS011;11580;52.562;13.418;2024-01-30T13:09:38;7.57;;;6.83;;
22826;SDS011;11580;52.562;13.418;2024-01-30T13:12:05;9.10;;;7.80;;
22826;SDS011;11580;52.562;13.418;2024-01-30T13:14:33;9.00;;;8.20;;
22826;SDS011;11580;52.562;13.418;2024-01-30T13:17:00;9.87;;;7.93;;
22826;SDS011;11580;52.562;13.418;2024-01-30T13:19:28;9.50;;;8.60;;
22826;SDS011;11580;52.562;13.418;2024-01-30T13:21:55;10.90;;;8.70;;
22826;SDS011;11580;52.562;13.418;2024-01-30T13:24:24;9.10;;;8.30;;
22826;SDS011;11580;52.562;13.418;2024-01-30T13:26:52;10.00;;;8.93;;
22826;SDS011;11580;52.562;13.418;2024-01-30T13:29:19;9.17;;;8.27;;
22826;SDS011;11580;52.562;13.418;2024-01-30T13:31:46;9.27;;;8.37;;
22826;SDS011;11580;52.562;13.418;2024-01-30T13:34:13;9.93;;;8.80;;
22826;SDS011;11580;52.562;13.418;2024-01-30T13:36:40;9.27;;;8.37;;
22826;SDS011;11580;52.562;13.418;2024-01-30T13:39:08;8.33;;;7.63;;
22826;SDS011;11580;52.562;13.418;2024-01-30T13:41:39;7.80;;;7.10;;
22826;SDS011;11580;52.562;13.418;2024-01-30T13:44:08;9.03;;;8.20;;
22826;SDS011;11580;52.562;13.418;2024-01-30T13:46:35;9.50;;;8.67;;
22826;SDS011;11580;52.562;13.418;2024-01-30T13:49:04;9.27;;;8.37;;
22826;SDS011;11580;52.562;13.418;2024-01-30T13:51:31;8.97;;;8.17;;
22826;SDS011;11580;52.562;13.418;2024-01-30T13:53:59;9.00;;;7.43;;
22826;SDS011;11580;52.562;13.418;2024-01-30T13:56:26;8.70;;;7.80;;
22826;SDS011;11580;52.562;13.418;2024-01-30T13:58:54;8.70;;;7.90;;
22826;SDS011;11580;52.562;13.418;2024-01-30T14:01:22;8.93;;;8.03;;
22826;SDS011;11580;52.562;13.418;2024-01-30T14:03:50;8.33;;;7.63;;
22826;SDS011;11580;52.562;13.418;2024-01-30T14:06:17;9.10;;;8.30;;
22826;SDS011;11580;52.562;13.418;2024-01-30T14:08:44;7.93;;;7.20;;
22826;SDS011;11580;52.562;13.418;2024-01-30T14:11:12;9.13;;;8.33;;
22826;SDS011;11580;52.562;13.418;2024-01-30T14:13:39;9.20;;;8.30;;
22826;SDS011;11580;52.562;13.418;2024-01-30T14:16:07;9.03;;;8.20;;
22826;SDS011;11580;52.562;13.418;2024-01-30T14:18:35;8.90;;;8.00;;
22826;SDS011;11580;52.562;13.418;2024-01-30T14:21:02;8.87;;;8.10;;
22826;SDS011;11580;52.562;13.418;2024-01-30T14:23:29;8.93;;;8.03;;
22826;SDS011;11580;52.562;13.418;2024-01-30T14:25:56;10.03;;;8.20;;
22826;SDS011;11580;52.562;13.418;2024-01-30T14:28:23;8.60;;;7.80;;
22826;SDS011;11580;52.562;13.418;2024-01-30T14:30:50;8.93;;;8.13;;
22826;SDS011;11580;52.562;13.418;2024-01-30T14:33:19;8.73;;;7.93;;
22826;SDS011;11580;52.562;13.418;2024-01-30T14:35:46;7.90;;;7.10;;
22826;SDS011;11580;52.562;13.418;2024-01-30T14:38:13;8.10;;;7.40;;